Time;durP1;ratioP1;P1;durP2;ratioP2;P2;SDS_P1;SDS_P2;PMS_P1;PMS_P2;Temp;Humidity;BMP_temperature;BMP_pressure;BME280_temperature;BME280_humidity;BME280_pressure;Samples;Min_cycle;Max_cycle;Signal;HPM_P1;HPM_P2
2023/04/04 00:00:32;;;;;;;;;;;;;;;10.40;68.14;99405.41;5105869;28;19923;-79
2023/04/04 00:02:58;;;;;;;;;;;;;;;10.40;70.55;99408.03;5102856;28;19923;-78
2023/04/04 00:05:23;;;;;;;;;;;;;;;10.35;73.41;99410.28;5104845;28;19985;-79
2023/04/04 00:07:49;;;;;;;;;;;;;;;10.27;72.23;99413.63;5085369;28;20016;-79
2023/04/04 00:10:15;;;;;;;;;;;;;;;10.05;70.89;99398.97;5103898;28;19922;-79
2023/04/04 00:12:41;;;;;;;;;;;;;;;9.99;70.75;99409.25;5105705;28;19938;-79
2023/04/04 00:15:07;;;;;;;;;;;;;;;9.97;72.98;99403.28;5104919;28;20006;-80
2023/04/04 00:17:33;;;;;;;;;;;;;;;10.03;73.32;99406.19;5083742;28;19970;-80
2023/04/04 00:19:58;;;;;;;;;;;;;;;10.02;76.65;99407.13;5102278;28;19916;-79
2023/04/04 00:22:24;;;;;;;;;;;;;;;10.03;73.91;99411.44;5104737;28;19911;-80
2023/04/04 00:24:49;;;;;;;;;;;;;;;9.89;70.83;99414.56;5103344;28;19998;-79
2023/04/04 00:27:15;;;;;;;;;;;;;;;9.95;71.51;99419.25;5085761;28;19958;-80
2023/04/04 00:29:41;;;;;;;;;;;;;;;9.75;70.99;99420.25;5105004;28;19916;-78
2023/04/04 00:32:06;;;;;;;;;;;;;;;9.79;74.01;99418.97;5105690;28;19922;-79
2023/04/04 00:34:32;;;;;;;;;;;;;;;9.64;73.87;99420.41;5083920;28;19923;-79
2023/04/04 00:36:57;;;;;;;;;;;;;;;9.56;73.47;99412.34;5105471;28;19999;-80
2023/04/04 00:39:25;;;;;;;;;;;;;;;9.43;75.28;99413.47;5102002;28;19970;-80
2023/04/04 00:41:51;;;;;;;;;;;;;;;9.49;75.49;99406.81;5089412;28;20006;-80
2023/04/04 00:44:16;;;;;;;;;;;;;;;9.55;75.16;99410.69;5105332;28;20352;-79
2023/04/04 00:46:42;;;;;;;;;;;;;;;9.51;73.94;99414.56;5111031;28;19923;-79
2023/04/04 00:49:07;;;;;;;;;;;;;;;9.51;75.08;99419.84;5112677;28;19916;-80
2023/04/04 00:51:33;;;;;;;;;;;;;;;9.50;75.18;99413.75;5115990;28;19924;-79
2023/04/04 00:53:58;;;;;;;;;;;;;;;9.53;75.87;99420.56;5127315;27;20043;-80
2023/04/04 00:56:25;;;;;;;;;;;;;;;9.53;76.48;99420.56;5080923;28;19959;-81
2023/04/04 00:58:50;;;;;;;;;;;;;;;9.57;75.60;99419.28;5112053;28;19927;-79
2023/04/04 01:01:16;;;;;;;;;;;;;;;9.60;75.49;99416.41;5109780;28;20010;-81
2023/04/04 01:03:41;;;;;;;;;;;;;;;9.54;75.73;99420.41;5109887;28;19920;-80
2023/04/04 01:06:07;;;;;;;;;;;;;;;9.58;76.11;99420.97;5112656;28;19912;-76
2023/04/04 01:08:35;;;;;;;;;;;;;;;9.63;77.68;99413.47;5110940;28;19920;-76
2023/04/04 01:11:00;;;;;;;;;;;;;;;9.62;76.14;99414.44;5105141;28;20265;-78
2023/04/04 01:13:26;;;;;;;;;;;;;;;9.63;76.42;99421.38;5108561;28;19923;-77
2023/04/04 01:15:53;;;;;;;;;;;;;;;9.65;77.36;99422.06;5087789;28;19923;-78
2023/04/04 01:18:20;;;;;;;;;;;;;;;9.66;78.89;99419.28;5090364;28;19963;-79
2023/04/04 01:20:55;;;;;;;;;;;;;;;9.68;77.05;99427.03;5107128;28;19916;-78
2023/04/04 01:23:21;;;;;;;;;;;;;;;9.69;75.45;99428.72;5087252;28;19923;-76
2023/04/04 01:25:47;;;;;;;;;;;;;;;9.68;75.52;99421.78;5089299;28;19939;-77
2023/04/04 01:28:13;;;;;;;;;;;;;;;9.69;75.71;99426.06;5106857;28;19920;-77
2023/04/04 01:30:40;;;;;;;;;;;;;;;9.64;74.66;99425.66;5085081;28;20044;-78
2023/04/04 01:33:06;;;;;;;;;;;;;;;9.58;75.90;99426.22;5088784;28;19923;-78
2023/04/04 01:35:38;;;;;;;;;;;;;;;9.53;76.06;99423.19;5086869;28;19935;-78
2023/04/04 01:38:04;;;;;;;;;;;;;;;9.48;76.50;99425.41;5108306;28;19912;-78
2023/04/04 01:40:36;;;;;;;;;;;;;;;9.31;76.43;99435.63;5110727;28;19916;-78
2023/04/04 01:43:02;;;;;;;;;;;;;;;9.27;78.32;99436.88;5087201;28;19943;-79
2023/04/04 01:45:31;;;;;;;;;;;;;;;9.28;79.58;99435.94;5103976;28;19922;-79
2023/04/04 01:47:58;;;;;;;;;;;;;;;9.29;79.13;99440.22;5105035;28;19912;-79
2023/04/04 01:50:25;;;;;;;;;;;;;;;9.24;78.85;99434.53;5087560;28;20379;-77
2023/04/04 01:52:52;;;;;;;;;;;;;;;9.34;78.48;99435.38;5105763;28;20449;-79
2023/04/04 01:55:17;;;;;;;;;;;;;;;9.31;77.63;99438.28;5104441;28;19963;-78
2023/04/04 01:57:43;;;;;;;;;;;;;;;9.29;77.40;99437.59;5086811;28;19923;-79
2023/04/04 02:00:09;;;;;;;;;;;;;;;9.22;78.26;99446.16;5106698;28;19916;-79
2023/04/04 02:02:41;;;;;;;;;;;;;;;9.14;78.54;99438.09;5105642;28;19920;-79
2023/04/04 02:05:07;;;;;;;;;;;;;;;9.03;79.92;99441.69;5110246;28;19923;-78
2023/04/04 02:07:33;;;;;;;;;;;;;;;9.05;78.91;99450.31;5109125;28;19920;-80
2023/04/04 02:10:00;;;;;;;;;;;;;;;9.04;79.23;99443.38;5091209;28;19942;-79
2023/04/04 02:12:26;;;;;;;;;;;;;;;9.06;79.30;99441.44;5104602;28;20352;-79
2023/04/04 02:14:51;;;;;;;;;;;;;;;9.06;79.49;99448.50;5108181;28;19955;-80
2023/04/04 02:17:17;;;;;;;;;;;;;;;9.12;78.65;99446.16;5105888;28;19916;-78
2023/04/04 02:19:42;;;;;;;;;;;;;;;9.13;79.65;99447.81;5086295;28;20376;-77
2023/04/04 02:22:08;;;;;;;;;;;;;;;9.13;79.81;99447.81;5108980;28;19916;-77
2023/04/04 02:24:33;;;;;;;;;;;;;;;9.11;79.19;99449.75;5104911;28;19920;-79
2023/04/04 02:27:00;;;;;;;;;;;;;;;9.04;79.28;99448.63;5105531;28;19916;-79
2023/04/04 02:29:26;;;;;;;;;;;;;;;9.04;79.77;99451.28;5108202;28;19937;-78
2023/04/04 02:31:52;;;;;;;;;;;;;;;9.10;80.67;99448.09;5107418;28;19950;-78
2023/04/04 02:34:18;;;;;;;;;;;;;;;9.12;80.56;99446.16;5107473;28;19916;-78
2023/04/04 02:36:45;;;;;;;;;;;;;;;9.09;80.98;99451.69;5095570;28;19969;-78
2023/04/04 02:39:11;;;;;;;;;;;;;;;9.09;80.83;99446.41;5108972;28;19957;-78
2023/04/04 02:41:38;;;;;;;;;;;;;;;9.06;80.90;99446.72;5090133;28;19930;-78
2023/04/04 02:44:03;;;;;;;;;;;;;;;9.07;82.44;99445.75;5089149;28;19916;-76
2023/04/04 02:46:30;;;;;;;;;;;;;;;9.10;81.60;99448.09;5110872;28;19916;-79
2023/04/04 02:49:02;;;;;;;;;;;;;;;9.09;82.15;99445.59;5088413;28;19919;-78
2023/04/04 02:51:30;;;;;;;;;;;;;;;9.01;82.24;99443.66;5090817;28;20325;-78
2023/04/04 02:53:56;;;;;;;;;;;;;;;9.06;82.16;99446.72;5106348;28;20323;-78
2023/04/04 02:56:27;;;;;;;;;;;;;;;9.07;82.91;99447.53;5109805;28;19994;-79
2023/04/04 02:58:53;;;;;;;;;;;;;;;9.03;84.00;99446.97;5091929;28;19966;-80
2023/04/04 03:01:18;;;;;;;;;;;;;;;9.05;82.94;99445.03;5108819;28;19915;-78
2023/04/04 03:03:45;;;;;;;;;;;;;;;9.08;82.72;99447.38;5106927;28;19926;-78
2023/04/04 03:06:10;;;;;;;;;;;;;;;9.07;82.91;99447.53;5107535;28;19915;-79
2023/04/04 03:08:36;;;;;;;;;;;;;;;9.13;82.07;99444.38;5106535;28;19922;-77
2023/04/04 03:11:02;;;;;;;;;;;;;;;9.10;81.92;99440.19;5086704;28;19927;-78
2023/04/04 03:13:27;;;;;;;;;;;;;;;9.11;81.23;99441.88;5089148;28;19922;-80
2023/04/04 03:15:58;;;;;;;;;;;;;;;8.99;80.84;99440.31;5089508;28;20259;-79
2023/04/04 03:18:25;;;;;;;;;;;;;;;9.05;81.04;99439.78;5083619;28;19977;-77
2023/04/04 03:20:51;;;;;;;;;;;;;;;9.12;81.79;99440.91;5090027;28;20368;-79
2023/04/04 03:23:16;;;;;;;;;;;;;;;9.09;81.20;99446.41;5107228;28;19915;-81
2023/04/04 03:25:42;;;;;;;;;;;;;;;9.07;81.31;99447.53;5105552;28;20000;-80
2023/04/04 03:28:08;;;;;;;;;;;;;;;9.04;82.03;99449.47;5103771;28;20283;-80
2023/04/04 03:30:34;;;;;;;;;;;;;;;8.99;82.28;99450.84;5083666;28;19916;-79
2023/04/04 03:33:02;;;;;;;;;;;;;;;9.01;82.63;99454.19;5085184;28;19919;-79
2023/04/04 03:35:28;;;;;;;;;;;;;;;9.05;80.96;99450.31;5090319;28;19915;-79
2023/04/04 03:37:53;;;;;;;;;;;;;;;9.03;81.60;99460.13;5108593;28;19924;-77
2023/04/04 03:40:19;;;;;;;;;;;;;;;8.99;82.17;99461.38;5090992;28;19986;-78
2023/04/04 03:42:44;;;;;;;;;;;;;;;8.88;82.52;99464.13;5106681;28;19919;-78
2023/04/04 03:45:13;;;;;;;;;;;;;;;8.82;84.02;99459.38;5109746;28;19919;-78
2023/04/04 03:47:40;;;;;;;;;;;;;;;8.75;84.89;99455.63;5087775;28;20287;-77
2023/04/04 03:50:06;;;;;;;;;;;;;;;8.85;85.48;99459.09;5109839;28;19916;-80
2023/04/04 03:52:36;;;;;;;;;;;;;;;8.89;85.59;99461.34;5088586;28;19955;-80
2023/04/04 03:55:01;;;;;;;;;;;;;;;8.91;84.74;99453.31;5115384;27;20267;-79
2023/04/04 03:57:27;;;;;;;;;;;;;;;8.91;86.72;99458.56;5106699;28;20311;-79
2023/04/04 03:59:52;;;;;;;;;;;;;;;8.95;86.60;99462.63;5088232;28;20344;-80
2023/04/04 04:02:20;;;;;;;;;;;;;;;8.95;85.37;99454.72;5120089;27;19916;-78
2023/04/04 04:04:45;;;;;;;;;;;;;;;8.92;84.40;99454.97;5104626;28;19923;-78
2023/04/04 04:07:11;;;;;;;;;;;;;;;8.84;84.33;99462.69;5105312;28;19916;-77
2023/04/04 04:09:37;;;;;;;;;;;;;;;8.84;86.40;99467.97;5103414;28;19920;-78
2023/04/04 04:12:03;;;;;;;;;;;;;;;8.81;85.13;99468.25;5088362;28;20397;-79
2023/04/04 04:14:28;;;;;;;;;;;;;;;8.86;84.57;99471.31;5084232;28;19943;-79
2023/04/04 04:16:55;;;;;;;;;;;;;;;8.88;85.01;99475.47;5087312;28;19965;-77
2023/04/04 04:19:21;;;;;;;;;;;;;;;8.83;84.27;99469.78;5103436;28;19919;-78
2023/04/04 04:21:47;;;;;;;;;;;;;;;8.82;84.08;99481.28;5104531;28;19916;-78
2023/04/04 04:24:12;;;;;;;;;;;;;;;8.87;84.96;99473.81;5087030;28;19916;-78
2023/04/04 04:26:37;;;;;;;;;;;;;;;8.84;85.17;99474.06;5084866;28;19916;-79
2023/04/04 04:29:03;;;;;;;;;;;;;;;8.87;84.89;99470.34;5105693;28;19955;-79
2023/04/04 04:31:31;;;;;;;;;;;;;;;8.90;84.45;99477.94;5086996;28;20007;-79
2023/04/04 04:33:57;;;;;;;;;;;;;;;8.90;85.60;99470.91;5102619;28;19923;-80
2023/04/04 04:36:26;;;;;;;;;;;;;;;8.81;84.86;99473.50;5086430;28;19915;-78
2023/04/04 04:39:00;;;;;;;;;;;;;;;8.86;84.84;99477.41;5083929;28;20294;-78
2023/04/04 04:41:29;;;;;;;;;;;;;;;8.82;84.28;99477.81;5087146;28;19923;-78
2023/04/04 04:43:55;;;;;;;;;;;;;;;8.79;85.02;99475.44;5083287;28;19916;-78
2023/04/04 04:46:23;;;;;;;;;;;;;;;8.72;85.66;99474.31;5086932;28;20010;-78
2023/04/04 04:48:49;;;;;;;;;;;;;;;8.72;85.50;99479.56;5106210;28;20335;-77
2023/04/04 04:51:16;;;;;;;;;;;;;;;8.73;86.96;99481.22;5085222;28;20010;-79
2023/04/04 04:53:46;;;;;;;;;;;;;;;8.71;86.94;99477.91;5085136;28;20047;-79
2023/04/04 04:56:12;;;;;;;;;;;;;;;8.62;87.53;99480.34;5085415;28;20010;-76
2023/04/04 04:58:41;;;;;;;;;;;;;;;8.60;88.01;99484.91;5083742;28;19923;-77
2023/04/04 05:01:09;;;;;;;;;;;;;;;8.59;87.67;99490.31;5082159;28;20277;-78
2023/04/04 05:03:38;;;;;;;;;;;;;;;8.51;88.93;99487.50;5089247;28;19915;-77
2023/04/04 05:06:06;;;;;;;;;;;;;;;8.54;88.20;99482.78;5104500;28;19930;-77
2023/04/04 05:08:33;;;;;;;;;;;;;;;8.47;87.86;99486.94;5101149;28;20382;-78
2023/04/04 05:11:09;;;;;;;;;;;;;;;8.35;88.79;99492.41;5083983;28;19939;-78
2023/04/04 05:13:36;;;;;;;;;;;;;;;8.34;89.13;99486.31;5082353;28;19916;-77
2023/04/04 05:16:02;;;;;;;;;;;;;;;8.32;89.20;99490.84;5104673;28;20357;-78
2023/04/04 05:18:28;;;;;;;;;;;;;;;8.23;89.87;99484.56;5082555;28;19965;-77
2023/04/04 05:20:55;;;;;;;;;;;;;;;8.18;90.17;99491.19;5084753;28;19923;-76
2023/04/04 05:23:23;;;;;;;;;;;;;;;8.21;90.62;99490.91;5089216;28;20018;-76
2023/04/04 05:25:52;;;;;;;;;;;;;;;8.22;90.62;99488.16;5083760;28;19922;-76
2023/04/04 05:28:20;;;;;;;;;;;;;;;8.27;91.45;99494.81;5084926;28;19916;-76
2023/04/04 05:30:47;;;;;;;;;;;;;;;8.23;91.94;99505.59;5081963;28;19920;-76
2023/04/04 05:33:17;;;;;;;;;;;;;;;8.25;93.18;99502.00;5081958;28;20056;-76
2023/04/04 05:35:49;;;;;;;;;;;;;;;8.29;95.83;99504.25;5080615;28;19927;-74
2023/04/04 05:38:16;;;;;;;;;;;;;;;8.40;92.65;99512.09;5089879;28;20333;-77
2023/04/04 05:40:44;;;;;;;;;;;;;;;8.48;91.80;99504.38;5082658;28;19916;-75
2023/04/04 05:43:13;;;;;;;;;;;;;;;8.51;91.63;99503.28;5085350;28;20340;-75
2023/04/04 05:45:51;;;;;;;;;;;;;;;8.52;91.52;99513.69;5084866;28;19939;-77
2023/04/04 05:48:16;;;;;;;;;;;;;;;8.61;90.26;99510.25;5102002;28;20654;-75
2023/04/04 05:50:50;;;;;;;;;;;;;;;8.54;89.78;99519.63;5080087;28;20010;-76
2023/04/04 05:53:20;;;;;;;;;;;;;;;8.38;89.39;99524.53;5081763;28;20269;-76
2023/04/04 05:55:52;;;;;;;;;;;;;;;8.40;90.19;99527.88;5084300;28;19947;-75
2023/04/04 05:58:18;;;;;;;;;;;;;;;8.46;89.99;99529.97;5082925;28;19916;-76
2023/04/04 06:00:52;;;;;;;;;;;;;;;8.51;89.37;99533.03;5084109;28;19923;-75
2023/04/04 06:03:17;;;;;;;;;;;;;;;8.51;89.72;99540.94;5105727;28;19923;-76
2023/04/04 06:05:49;;;;;;;;;;;;;;;8.45;89.15;99541.44;5081718;28;19947;-77
2023/04/04 06:08:15;;;;;;;;;;;;;;;8.39;89.53;99536.72;5081364;28;20303;-77
2023/04/04 06:10:40;;;;;;;;;;;;;;;8.35;89.07;99545.84;5101060;28;19916;-76
2023/04/04 06:13:06;;;;;;;;;;;;;;;8.27;90.46;99548.22;5100946;28;20006;-77
2023/04/04 06:15:32;;;;;;;;;;;;;;;8.33;90.24;99553.00;5083708;28;19919;-77
2023/04/04 06:17:58;;;;;;;;;;;;;;;8.41;89.48;99555.84;5085214;28;19916;-78
2023/04/04 06:20:23;;;;;;;;;;;;;;;8.49;87.92;99550.75;5082126;28;19923;-78
2023/04/04 06:22:50;;;;;;;;;;;;;;;8.44;89.06;99545.03;5102748;28;20229;-76
2023/04/04 06:25:16;;;;;;;;;;;;;;;8.45;88.16;99551.97;5083257;28;19916;-79
2023/04/04 06:27:42;;;;;;;;;;;;;;;8.51;87.02;99556.72;5083665;28;20336;-78
2023/04/04 06:30:08;;;;;;;;;;;;;;;8.47;85.55;99549.22;5084437;28;19962;-78
2023/04/04 06:32:34;;;;;;;;;;;;;;;8.45;85.48;99546.72;5081419;28;19916;-79
2023/04/04 06:35:03;;;;;;;;;;;;;;;8.47;84.41;99552.69;5087100;28;19965;-78
2023/04/04 06:37:42;;;;;;;;;;;;;;;8.46;84.56;99553.66;5075387;28;19916;-78
2023/04/04 06:40:12;;;;;;;;;;;;;;;8.46;82.85;99553.66;5083669;28;19915;-78
2023/04/04 06:42:46;;;;;;;;;;;;;;;8.52;82.90;99561.03;5084438;28;19920;-78
2023/04/04 06:45:12;;;;;;;;;;;;;;;8.57;82.54;99556.19;5085931;28;19916;-78
2023/04/04 06:47:37;;;;;;;;;;;;;;;8.72;81.95;99553.25;5103926;28;19939;-79
2023/04/04 06:50:03;;;;;;;;;;;;;;;8.81;79.97;99552.44;5103428;28;19920;-78
2023/04/04 06:52:28;;;;;;;;;;;;;;;8.86;77.86;99550.25;5106484;28;19923;-79
2023/04/04 06:54:54;;;;;;;;;;;;;;;8.82;78.47;99557.56;5103583;28;20375;-78
2023/04/04 06:57:19;;;;;;;;;;;;;;;8.82;75.43;99556.75;5106213;28;19916;-79
2023/04/04 06:59:45;;;;;;;;;;;;;;;8.94;75.81;99559.16;5083748;28;19916;-78
2023/04/04 07:02:10;;;;;;;;;;;;;;;9.11;75.26;99557.69;5078852;28;19923;-78
2023/04/04 07:04:38;;;;;;;;;;;;;;;9.18;73.18;99556.19;5100287;28;19915;-76
2023/04/04 07:07:03;;;;;;;;;;;;;;;9.05;72.05;99566.13;5103856;28;20006;-78
2023/04/04 07:09:29;;;;;;;;;;;;;;;9.06;69.95;99566.97;5112877;28;20006;-77
2023/04/04 07:11:55;;;;;;;;;;;;;;;9.11;70.07;99565.59;5106260;28;19937;-78
2023/04/04 07:14:23;;;;;;;;;;;;;;;9.12;67.65;99567.25;5105729;28;19916;-75
2023/04/04 07:16:49;;;;;;;;;;;;;;;9.26;67.25;99569.50;5102943;28;19916;-77
2023/04/04 07:19:15;;;;;;;;;;;;;;;9.45;66.55;99572.19;5106939;28;19931;-74
2023/04/04 07:21:41;;;;;;;;;;;;;;;9.47;67.25;99576.50;5099380;28;19950;-76
2023/04/04 07:24:07;;;;;;;;;;;;;;;9.59;66.71;99570.16;5100399;28;19944;-74
2023/04/04 07:26:33;;;;;;;;;;;;;;;9.65;64.50;99574.88;5103725;28;19916;-75
2023/04/04 07:28:59;;;;;;;;;;;;;;;9.74;65.14;99568.78;5103109;28;19943;-76
2023/04/04 07:31:25;;;;;;;;;;;;;;;9.69;65.07;99565.72;5106255;28;19924;-76
2023/04/04 07:33:52;;;;;;;;;;;;;;;9.71;64.27;99566.44;5063565;28;20074;-77
2023/04/04 07:36:18;;;;;;;;;;;;;;;9.73;64.16;99569.75;5066422;28;19916;-77
2023/04/04 07:38:43;;;;;;;;;;;;;;;9.67;62.62;99576.38;5063222;28;19950;-78
2023/04/04 07:41:10;;;;;;;;;;;;;;;9.73;62.89;99569.75;5064218;28;20017;-77
2023/04/04 07:43:36;;;;;;;;;;;;;;;9.79;63.80;99577.09;5059494;28;20066;-77
2023/04/04 07:46:01;;;;;;;;;;;;;;;9.87;62.42;99574.63;5063930;28;20011;-77
2023/04/04 07:48:27;;;;;;;;;;;;;;;9.78;61.91;99575.44;5061522;28;19917;-75
2023/04/04 07:50:52;;;;;;;;;;;;;;;9.62;62.02;99580.41;5064077;28;19917;-78
2023/04/04 07:53:18;;;;;;;;;;;;;;;9.68;62.48;99579.88;5063003;28;19955;-78
2023/04/04 07:55:43;;;;;;;;;;;;;;;9.71;63.67;99584.88;5062308;28;19943;-77
2023/04/04 07:58:09;;;;;;;;;;;;;;;9.72;62.77;99581.28;5064189;28;20792;-77
2023/04/04 08:00:35;;;;;;;;;;;;;;;9.87;62.52;99577.25;5060675;28;19912;-78
2023/04/04 08:03:01;;;;;;;;;;;;;;;9.91;62.62;99586.53;5064651;28;19974;-78
2023/04/04 08:05:27;;;;;;;;;;;;;;;10.08;62.26;99588.50;5063826;28;19916;-78
2023/04/04 08:07:52;;;;;;;;;;;;;;;10.10;62.88;99591.84;5063466;28;19913;-78
2023/04/04 08:10:18;;;;;;;;;;;;;;;10.16;60.99;99586.03;5062295;28;19920;-77
2023/04/04 08:12:43;;;;;;;;;;;;;;;10.23;60.93;99587.16;5060443;28;19981;-76
2023/04/04 08:15:10;;;;;;;;;;;;;;;10.20;60.65;99592.69;5061899;28;19928;-76
2023/04/04 08:17:36;;;;;;;;;;;;;;;10.16;59.24;99591.31;5058344;28;20329;-78
2023/04/04 08:20:02;;;;;;;;;;;;;;;10.07;59.68;99589.47;5062915;28;19916;-77
2023/04/04 08:22:28;;;;;;;;;;;;;;;10.03;58.11;99590.72;5060720;28;19916;-78
2023/04/04 08:24:54;;;;;;;;;;;;;;;9.96;58.89;99597.50;5063438;28;19954;-77
2023/04/04 08:27:20;;;;;;;;;;;;;;;9.95;56.83;99587.97;5061875;28;19916;-78
2023/04/04 08:29:46;;;;;;;;;;;;;;;10.08;58.10;99598.19;5060402;28;19917;-77
2023/04/04 08:32:13;;;;;;;;;;;;;;;10.35;57.38;99600.19;5075488;28;19916;-77
2023/04/04 08:34:39;;;;;;;;;;;;;;;10.46;56.41;99586.84;5104574;28;20375;-76
2023/04/04 08:37:05;;;;;;;;;;;;;;;10.51;55.70;99601.28;5104501;28;19934;-77
2023/04/04 08:39:30;;;;;;;;;;;;;;;10.52;54.07;99602.09;5086297;28;19939;-78
2023/04/04 08:42:01;;;;;;;;;;;;;;;10.55;54.74;99601.81;5101156;28;19920;-78
2023/04/04 08:44:27;;;;;;;;;;;;;;;10.58;54.05;99596.25;5103359;28;19915;-77
2023/04/04 08:46:53;;;;;;;;;;;;;;;10.69;53.74;99596.09;5101781;28;19915;-79
2023/04/04 08:49:21;;;;;;;;;;;;;;;10.68;51.76;99586.50;5102443;28;19923;-77
2023/04/04 08:51:48;;;;;;;;;;;;;;;10.75;53.23;99592.91;5102277;28;20355;-77
2023/04/04 08:54:15;;;;;;;;;;;;;;;10.77;50.93;99595.41;5083618;28;19920;-78
2023/04/04 08:56:41;;;;;;;;;;;;;;;10.68;53.05;99595.25;5102903;28;19967;-77
2023/04/04 08:59:07;;;;;;;;;;;;;;;10.68;53.71;99599.72;5100440;28;20011;-77
2023/04/04 09:01:32;;;;;;;;;;;;;;;10.79;55.00;99594.25;5085450;28;19955;-77
2023/04/04 09:03:58;;;;;;;;;;;;;;;10.90;54.41;99594.09;5100742;28;19916;-76
2023/04/04 09:06:25;;;;;;;;;;;;;;;10.90;48.56;99590.63;5104353;28;19919;-77
2023/04/04 09:08:52;;;;;;;;;;;;;;;10.99;51.32;99585.31;5102564;28;19923;-76
2023/04/04 09:11:19;;;;;;;;;;;;;;;11.03;47.49;99591.97;5101815;28;19915;-78
2023/04/04 09:13:45;;;;;;;;;;;;;;;11.13;47.00;99593.75;5101408;28;20405;-78
2023/04/04 09:16:11;;;;;;;3.00;1.80;;;;;;;11.26;47.12;99597.72;5102541;28;19922;-77
2023/04/04 09:18:36;;;;;;;;;;;;;;;11.40;45.99;99588.47;5099055;28;20407;-77
2023/04/04 09:21:08;;;;;;;;;;;;;;;11.36;45.20;99597.69;5085406;28;19916;-78
2023/04/04 09:23:33;;;;;;;;;;;;;;;11.40;44.16;99588.47;5099936;28;19926;-77
2023/04/04 09:25:59;;;;;;;;;;;;;;;11.50;44.60;99591.88;5103451;28;20006;-77
2023/04/04 09:28:24;;;;;;;;;;;;;;;11.57;44.08;99587.69;5080942;28;19923;-77
2023/04/04 09:30:51;;;;;;;;;;;;;;;11.47;43.04;99590.38;5082265;28;19916;-77
2023/04/04 09:33:17;;;;;;;;;;;;;;;11.53;43.62;99598.69;5101168;28;19916;-78
2023/04/04 09:35:43;;;;;;;;;;;;;;;11.53;42.30;99593.41;5103203;28;20388;-77
2023/04/04 09:38:09;;;;;;;;;;;;;;;11.55;41.55;99596.72;5102857;28;19994;-77
2023/04/04 09:40:39;;;;;;;;;;;;;;;11.54;41.19;99592.44;5099450;28;20003;-77
2023/04/04 09:43:06;;;;;;;;;;;;;;;11.60;41.55;99590.03;5099715;28;20421;-76
2023/04/04 09:45:37;;;;;;;;;;;;;;;11.64;40.99;99599.31;5102124;28;20399;-77
2023/04/04 09:48:04;;;;;;;;;;;;;;;11.62;39.72;99598.63;5102572;28;19926;-78
2023/04/04 09:50:32;;;;;;;;;;;;;;;11.72;39.36;99598.59;5100019;28;20230;-77
2023/04/04 09:52:59;;;;;;;;;;;;;;;11.80;39.79;99596.06;5104970;28;19916;-78
2023/04/04 09:55:35;;;;;;;;;;;;;;;11.84;38.76;99597.41;5104271;28;19923;-78
2023/04/04 09:58:13;;;;;;;;;;;;;;;11.97;39.19;99597.03;5099891;28;20345;-77
2023/04/04 10:00:46;;;;;;;;;;;;;;;11.99;39.09;99597.72;5100468;28;19916;-77
2023/04/04 10:03:13;;;;;;;;;;;;;;;11.95;38.38;99599.03;5100223;28;19916;-78
2023/04/04 10:05:39;;;;;;;;;;;;;;;12.00;38.58;99607.34;5102721;28;20224;-78
2023/04/04 10:08:17;;;;;;;;;;;;;;;12.11;37.36;99599.16;5102111;28;19922;-77
2023/04/04 10:11:02;;;;;;;;;;;;;;;12.07;38.20;99603.09;5099049;28;20330;-76
2023/04/04 10:13:29;;;;;;;;;;;;;;;12.22;38.21;99594.47;5063021;28;20303;-78
2023/04/04 10:15:56;;;;;;;;;;;;;;;12.30;37.55;99593.72;5082644;28;20313;-77
2023/04/04 10:18:28;;;;;;;;;;;;;;;12.30;38.17;99599.03;5087278;28;20316;-78
2023/04/04 10:20:55;;;;;;;;;;;;;;;12.16;36.91;99607.47;5104336;28;19916;-78
2023/04/04 10:23:22;;;;;;;;;;;;;;;12.24;36.96;99596.97;5099643;28;20375;-78
2023/04/04 10:25:48;;;;;;;;;;;;;;;12.32;37.73;99597.03;5104055;28;20454;-79
2023/04/04 10:28:15;;;;;;;;;;;;;;;12.17;37.26;99595.91;5101778;28;19920;-78
2023/04/04 10:30:48;;;;;;;;;;;;;;;12.06;36.57;99601.44;5107610;28;19930;-78
2023/04/04 10:33:34;;;;;;;;;;;;;;;12.06;37.26;99606.72;5106407;28;19924;-79
2023/04/04 10:36:02;;;;;;;;;;;;;;;12.16;38.13;99596.91;5107740;28;19924;-79
2023/04/04 10:38:30;;;;;;;;;;;;;;;12.29;38.11;99595.53;5102291;28;20284;-78
2023/04/04 10:40:59;;;;;;;;;;;;;;;12.37;39.00;99600.03;5102320;28;20248;-78
2023/04/04 10:43:28;;;;;;;;;;;;;;;12.39;38.00;99598.09;5107721;28;19924;-78
2023/04/04 10:45:59;;;;;;;;;;;;;;;12.37;38.28;99584.16;5104773;28;19926;-79
2023/04/04 10:48:25;;;;;;;;;;;;;;;12.30;37.57;99599.03;5098531;28;19923;-79
2023/04/04 10:50:51;;;;;;;;;;;;;;;12.38;37.31;99585.00;5083551;28;19916;-79
2023/04/04 10:53:17;;;;;;;;;;;;;;;12.50;36.73;99584.59;5084816;28;19934;-79
2023/04/04 10:55:44;;;;;;;;;;;;;;;12.56;36.66;99584.00;5101452;28;19923;-80
2023/04/04 10:58:11;;;;;;;;;;;;;;;12.46;37.30;99577.97;5081794;28;19924;-80
2023/04/04 11:00:53;;;;;;;;;;;;;;;12.51;38.00;99573.03;5102035;28;19916;-79
2023/04/04 11:03:19;;;;;;;;;;;;;;;12.59;38.97;99575.75;5101200;28;20352;-80
2023/04/04 11:05:50;;;;;;;;;;;;;;;12.64;38.65;99576.13;5083966;28;19927;-80
2023/04/04 11:08:23;;;;;;;;;;;;;;;12.64;38.21;99575.28;5101018;28;19960;-79
2023/04/04 11:10:49;;;;;;;;;;;;;;;12.41;38.45;99574.13;5100770;28;20299;-80
2023/04/04 11:13:31;;;;;;;;;;;;;;;12.45;37.54;99573.66;5100625;28;19919;-80
2023/04/04 11:15:57;;;;;;;;;;;;;;;12.36;37.25;99561.38;5101330;28;20247;-79
2023/04/04 11:18:44;;;;;;;;;;;;;;;12.32;37.18;99557.34;5102205;28;19935;-79
2023/04/04 11:21:13;;;;;;;;;;;;;;;12.44;37.64;99558.75;5099184;28;19997;-79
2023/04/04 11:23:47;;;;;;;;;;;;;;;12.53;37.70;99563.13;5103015;28;20862;-78
2023/04/04 11:26:28;;;;;;;;;;;;;;;12.70;38.32;99564.91;5104517;28;19919;-76
2023/04/04 11:28:58;;;;;;;;;;;;;;;12.79;37.70;99562.28;5099954;28;19927;-79
2023/04/04 11:31:24;;;;;;;;;;;;;;;12.89;37.52;99560.38;5086455;28;20366;-79
2023/04/04 11:33:54;;;;;;;;;;;;;;;12.98;37.86;99554.13;5101571;28;19916;-79
2023/04/04 11:36:43;;;;;;;;;;;;;;;13.15;38.28;99552.41;5099793;28;20354;-79
2023/04/04 11:39:26;;;;;;;;;;;;;;;13.25;38.46;99553.97;5101598;28;19939;-79
2023/04/04 11:42:03;;;;;;;;;;;;;;;13.38;38.46;99549.03;5083945;28;19916;-77
2023/04/04 11:44:30;;;;;;;;;;;;;;;13.50;37.02;99553.03;5104093;28;20388;-77
2023/04/04 11:47:16;;;;;;;;;;;;;;;13.63;36.73;99551.75;5101887;28;20392;-78
2023/04/04 11:49:42;;;;;;;;;;;;;;;13.72;36.21;99534.88;5098908;28;19920;-77
2023/04/04 11:52:09;;;;;;;;;;;;;;;13.77;36.59;99537.88;5100445;28;20070;-78
2023/04/04 11:54:36;;;;;;;;;;;;;;;13.89;36.65;99537.38;5085184;28;20000;-78
2023/04/04 11:57:02;;;;;;;;;;;;;;;13.91;36.29;99534.56;5101656;28;19915;-77
2023/04/04 11:59:29;;;;;;;;;;;;;;;14.03;36.17;99535.88;5105037;28;20264;-77
2023/04/04 12:01:54;;;;;;;;;;;;;;;14.02;35.79;99536.88;5101737;28;20344;-77
2023/04/04 12:04:21;;;;;;;;;;;;;;;13.96;35.79;99526.94;5105311;28;19923;-77
2023/04/04 12:06:50;;;;;;;;;;;;;;;13.76;35.73;99525.59;5105155;28;20267;-76
2023/04/04 12:09:17;;;;;;;;;;;;;;;13.89;36.57;99525.94;5097142;28;19924;-77
2023/04/04 12:11:43;;;;;;;;;;;;;;;14.02;36.10;99526.25;5103554;28;20307;-77
2023/04/04 12:14:15;;;;;;;;;;;;;;;14.13;35.40;99523.31;5099459;28;19954;-76
2023/04/04 12:16:42;;;;;;;;;;;;;;;14.21;34.97;99525.94;5088198;28;19922;-76
2023/04/04 12:19:07;;;;;;;;;;;;;;;14.21;35.54;99515.31;5084041;28;19968;-75
2023/04/04 12:21:32;;;;;;;;;;;;;;;14.12;35.23;99511.03;5083655;28;19924;-76
2023/04/04 12:23:58;;;;;;;;;;;;;;;14.21;34.96;99515.31;5101084;28;20621;-76
2023/04/04 12:26:28;;;;;;;;;;;;;;;14.24;34.51;99515.00;5106111;28;19926;-76
2023/04/04 12:28:57;;;;;;;;;;;;;;;14.42;34.92;99508.72;5106750;28;20061;-75
2023/04/04 12:31:24;;;;;;;;;;;;;;;14.44;34.18;99509.34;5104805;28;19939;-77
2023/04/04 12:33:53;;;;;;;;;;;;;;;14.58;33.70;99503.38;5112444;28;19916;-76
2023/04/04 12:36:25;;;;;;;;;;;;;;;14.77;33.90;99503.00;5081762;28;20178;-76
2023/04/04 12:39:04;;;;;;;;;;;;;;;14.86;34.00;99499.28;5088142;28;19927;-76
2023/04/04 12:41:30;;;;;;;;;;;;;;;14.87;35.11;99511.59;5100954;28;19926;-77
2023/04/04 12:44:18;;;;;;;;;;;;;;;14.96;34.31;99505.22;5105405;28;19928;-75
2023/04/04 12:46:44;;;;;;;;;;;;;;;15.18;33.65;99502.84;5086239;28;20690;-77
2023/04/04 12:49:10;;;;;;;;;;;;;;;15.13;32.45;99498.88;5107547;28;19927;-77
2023/04/04 12:51:36;;;;;;;;;;;;;;;14.92;32.84;99503.09;5105377;28;19938;-78
2023/04/04 12:54:06;;;;;;;;;;;;;;;15.04;32.54;99502.56;5102524;28;19920;-78